sensor_id;sensor_type;location;lat;lon;timestamp;P1;durP1;ratioP1;P2;durP2;ratioP2
41653;SDS011;68687;52.030;7.110;2023-04-25T00:00:35;17.50;;;6.93;;
41653;SDS011;68687;52.030;7.110;2023-04-25T00:03:00;17.50;;;7.47;;
41653;SDS011;68687;52.030;7.110;2023-04-25T00:05:26;18.25;;;6.90;;
41653;SDS011;68687;52.030;7.110;2023-04-25T00:07:51;13.48;;;6.70;;
41653;SDS011;68687;52.030;7.110;2023-04-25T00:10:18;11.45;;;6.32;;
41653;SDS011;68687;52.030;7.110;2023-04-25T00:12:45;11.77;;;6.05;;
41653;SDS011;68687;52.030;7.110;2023-04-25T00:15:10;18.33;;;8.23;;
41653;SDS011;68687;52.030;7.110;2023-04-25T00:17:36;16.75;;;9.10;;
41653;SDS011;68687;52.030;7.110;2023-04-25T00:20:03;11.30;;;6.78;;
41653;SDS011;68687;52.030;7.110;2023-04-25T00:22:30;11.13;;;6.80;;
41653;SDS011;68687;52.030;7.110;2023-04-25T00:24:55;9.32;;;6.50;;
41653;SDS011;68687;52.030;7.110;2023-04-25T00:27:25;14.70;;;6.93;;
41653;SDS011;68687;52.030;7.110;2023-04-25T00:29:51;12.40;;;7.10;;
41653;SDS011;68687;52.030;7.110;2023-04-25T00:32:17;10.57;;;6.75;;
41653;SDS011;68687;52.030;7.110;2023-04-25T00:34:42;14.10;;;6.68;;
41653;SDS011;68687;52.030;7.110;2023-04-25T00:37:07;11.93;;;6.78;;
41653;SDS011;68687;52.030;7.110;2023-04-25T00:39:33;11.93;;;5.88;;
41653;SDS011;68687;52.030;7.110;2023-04-25T00:41:58;14.95;;;7.18;;
41653;SDS011;68687;52.030;7.110;2023-04-25T00:44:26;13.98;;;7.15;;
41653;SDS011;68687;52.030;7.110;2023-04-25T00:46:53;17.60;;;7.53;;
41653;SDS011;68687;52.030;7.110;2023-04-25T00:49:19;11.50;;;6.82;;
41653;SDS011;68687;52.030;7.110;2023-04-25T00:51:44;24.05;;;7.43;;
41653;SDS011;68687;52.030;7.110;2023-04-25T00:54:16;24.88;;;8.32;;
41653;SDS011;68687;52.030;7.110;2023-04-25T00:56:42;23.17;;;8.32;;
41653;SDS011;68687;52.030;7.110;2023-04-25T00:59:16;20.00;;;7.47;;
41653;SDS011;68687;52.030;7.110;2023-04-25T01:01:44;21.10;;;8.35;;
41653;SDS011;68687;52.030;7.110;2023-04-25T01:04:10;30.08;;;8.73;;
41653;SDS011;68687;52.030;7.110;2023-04-25T01:06:35;25.65;;;8.90;;
41653;SDS011;68687;52.030;7.110;2023-04-25T01:09:01;33.88;;;8.48;;
41653;SDS011;68687;52.030;7.110;2023-04-25T01:11:30;19.90;;;9.63;;
41653;SDS011;68687;52.030;7.110;2023-04-25T01:13:56;30.38;;;10.05;;
41653;SDS011;68687;52.030;7.110;2023-04-25T01:16:21;23.17;;;8.60;;
41653;SDS011;68687;52.030;7.110;2023-04-25T01:18:54;21.83;;;8.85;;
41653;SDS011;68687;52.030;7.110;2023-04-25T01:21:20;35.97;;;9.27;;
41653;SDS011;68687;52.030;7.110;2023-04-25T01:23:46;26.00;;;10.07;;
41653;SDS011;68687;52.030;7.110;2023-04-25T01:26:12;28.92;;;8.45;;
41653;SDS011;68687;52.030;7.110;2023-04-25T01:28:43;29.55;;;8.73;;
41653;SDS011;68687;52.030;7.110;2023-04-25T01:31:12;27.40;;;9.23;;
41653;SDS011;68687;52.030;7.110;2023-04-25T01:33:38;29.13;;;9.80;;
41653;SDS011;68687;52.030;7.110;2023-04-25T01:36:04;30.88;;;8.07;;
41653;SDS011;68687;52.030;7.110;2023-04-25T01:38:30;24.02;;;8.32;;
41653;SDS011;68687;52.030;7.110;2023-04-25T01:40:55;28.67;;;8.15;;
41653;SDS011;68687;52.030;7.110;2023-04-25T01:43:21;22.58;;;9.07;;
41653;SDS011;68687;52.030;7.110;2023-04-25T01:45:46;20.20;;;8.15;;
41653;SDS011;68687;52.030;7.110;2023-04-25T01:48:13;33.13;;;9.48;;
41653;SDS011;68687;52.030;7.110;2023-04-25T01:50:39;25.80;;;8.77;;
41653;SDS011;68687;52.030;7.110;2023-04-25T01:53:09;33.92;;;8.65;;
41653;SDS011;68687;52.030;7.110;2023-04-25T01:55:36;25.73;;;9.48;;
41653;SDS011;68687;52.030;7.110;2023-04-25T01:58:04;30.73;;;9.27;;
41653;SDS011;68687;52.030;7.110;2023-04-25T02:00:34;29.58;;;8.40;;
41653;SDS011;68687;52.030;7.110;2023-04-25T02:03:06;41.83;;;9.95;;
41653;SDS011;68687;52.030;7.110;2023-04-25T02:05:39;19.17;;;8.00;;
41653;SDS011;68687;52.030;7.110;2023-04-25T02:08:08;30.60;;;10.82;;
41653;SDS011;68687;52.030;7.110;2023-04-25T02:10:34;29.27;;;9.02;;
41653;SDS011;68687;52.030;7.110;2023-04-25T02:13:00;26.13;;;7.85;;
41653;SDS011;68687;52.030;7.110;2023-04-25T02:15:26;34.28;;;10.73;;
41653;SDS011;68687;52.030;7.110;2023-04-25T02:17:57;36.05;;;10.85;;
41653;SDS011;68687;52.030;7.110;2023-04-25T02:20:26;29.88;;;10.25;;
41653;SDS011;68687;52.030;7.110;2023-04-25T02:22:52;20.15;;;9.18;;
41653;SDS011;68687;52.030;7.110;2023-04-25T02:25:20;25.30;;;8.98;;
41653;SDS011;68687;52.030;7.110;2023-04-25T02:27:47;34.20;;;8.25;;
41653;SDS011;68687;52.030;7.110;2023-04-25T02:30:12;35.55;;;9.27;;
41653;SDS011;68687;52.030;7.110;2023-04-25T02:32:38;31.13;;;8.13;;
41653;SDS011;68687;52.030;7.110;2023-04-25T02:35:04;28.00;;;8.18;;
41653;SDS011;68687;52.030;7.110;2023-04-25T02:37:31;24.10;;;8.60;;
41653;SDS011;68687;52.030;7.110;2023-04-25T02:39:57;27.98;;;9.30;;
41653;SDS011;68687;52.030;7.110;2023-04-25T02:42:22;21.65;;;8.90;;
41653;SDS011;68687;52.030;7.110;2023-04-25T02:45:03;29.08;;;10.40;;
41653;SDS011;68687;52.030;7.110;2023-04-25T02:47:29;24.33;;;9.10;;
41653;SDS011;68687;52.030;7.110;2023-04-25T02:49:57;25.63;;;7.85;;
41653;SDS011;68687;52.030;7.110;2023-04-25T02:52:23;34.78;;;9.02;;
41653;SDS011;68687;52.030;7.110;2023-04-25T02:54:48;31.30;;;10.68;;
41653;SDS011;68687;52.030;7.110;2023-04-25T02:57:13;30.42;;;8.60;;
41653;SDS011;68687;52.030;7.110;2023-04-25T02:59:38;32.38;;;9.75;;
41653;SDS011;68687;52.030;7.110;2023-04-25T03:02:13;31.25;;;8.30;;
41653;SDS011;68687;52.030;7.110;2023-04-25T03:04:38;35.22;;;8.82;;
41653;SDS011;68687;52.030;7.110;2023-04-25T03:07:06;42.22;;;11.52;;
41653;SDS011;68687;52.030;7.110;2023-04-25T03:09:32;30.73;;;9.80;;
41653;SDS011;68687;52.030;7.110;2023-04-25T03:12:00;21.27;;;8.65;;
41653;SDS011;68687;52.030;7.110;2023-04-25T03:14:26;32.45;;;9.07;;
41653;SDS011;68687;52.030;7.110;2023-04-25T03:16:51;33.13;;;9.38;;
41653;SDS011;68687;52.030;7.110;2023-04-25T03:19:22;31.67;;;8.15;;
41653;SDS011;68687;52.030;7.110;2023-04-25T03:21:48;24.98;;;8.85;;
41653;SDS011;68687;52.030;7.110;2023-04-25T03:24:16;29.05;;;9.43;;
41653;SDS011;68687;52.030;7.110;2023-04-25T03:26:42;32.88;;;9.05;;
41653;SDS011;68687;52.030;7.110;2023-04-25T03:29:07;28.70;;;8.02;;
41653;SDS011;68687;52.030;7.110;2023-04-25T03:31:35;21.15;;;8.90;;
41653;SDS011;68687;52.030;7.110;2023-04-25T03:34:03;25.05;;;9.32;;
41653;SDS011;68687;52.030;7.110;2023-04-25T03:36:29;31.90;;;9.77;;
41653;SDS011;68687;52.030;7.110;2023-04-25T03:38:54;20.73;;;8.80;;
41653;SDS011;68687;52.030;7.110;2023-04-25T03:41:19;29.27;;;10.32;;
41653;SDS011;68687;52.030;7.110;2023-04-25T03:43:45;24.17;;;9.40;;
41653;SDS011;68687;52.030;7.110;2023-04-25T03:46:16;24.60;;;9.48;;
41653;SDS011;68687;52.030;7.110;2023-04-25T03:48:41;33.85;;;10.43;;
41653;SDS011;68687;52.030;7.110;2023-04-25T03:51:10;24.02;;;10.25;;
41653;SDS011;68687;52.030;7.110;2023-04-25T03:53:38;30.38;;;8.93;;
41653;SDS011;68687;52.030;7.110;2023-04-25T03:56:12;29.70;;;8.68;;
41653;SDS011;68687;52.030;7.110;2023-04-25T03:58:38;30.30;;;8.70;;
41653;SDS011;68687;52.030;7.110;2023-04-25T04:01:06;28.95;;;9.43;;
41653;SDS011;68687;52.030;7.110;2023-04-25T04:03:35;30.38;;;9.77;;
41653;SDS011;68687;52.030;7.110;2023-04-25T04:06:04;27.88;;;10.15;;
41653;SDS011;68687;52.030;7.110;2023-04-25T04:08:30;27.85;;;8.90;;
41653;SDS011;68687;52.030;7.110;2023-04-25T04:10:57;36.08;;;9.40;;
41653;SDS011;68687;52.030;7.110;2023-04-25T04:13:22;27.33;;;8.70;;
41653;SDS011;68687;52.030;7.110;2023-04-25T04:15:47;25.35;;;8.32;;
41653;SDS011;68687;52.030;7.110;2023-04-25T04:18:13;27.67;;;9.35;;
41653;SDS011;68687;52.030;7.110;2023-04-25T04:20:38;30.13;;;9.95;;
41653;SDS011;68687;52.030;7.110;2023-04-25T04:23:07;21.20;;;8.57;;
41653;SDS011;68687;52.030;7.110;2023-04-25T04:25:32;20.98;;;8.70;;
41653;SDS011;68687;52.030;7.110;2023-04-25T04:27:57;25.35;;;8.32;;
41653;SDS011;68687;52.030;7.110;2023-04-25T04:30:23;29.77;;;9.02;;
41653;SDS011;68687;52.030;7.110;2023-04-25T04:32:52;23.23;;;8.70;;
41653;SDS011;68687;52.030;7.110;2023-04-25T04:35:17;20.63;;;8.55;;
41653;SDS011;68687;52.030;7.110;2023-04-25T04:37:43;28.38;;;9.77;;
41653;SDS011;68687;52.030;7.110;2023-04-25T04:40:10;22.20;;;8.55;;
41653;SDS011;68687;52.030;7.110;2023-04-25T04:42:36;21.73;;;8.43;;
41653;SDS011;68687;52.030;7.110;2023-04-25T04:45:11;20.27;;;7.88;;
41653;SDS011;68687;52.030;7.110;2023-04-25T04:47:37;28.38;;;8.68;;
41653;SDS011;68687;52.030;7.110;2023-04-25T04:50:04;20.63;;;8.35;;
41653;SDS011;68687;52.030;7.110;2023-04-25T04:52:36;27.02;;;8.55;;
41653;SDS011;68687;52.030;7.110;2023-04-25T04:55:02;27.70;;;9.10;;
41653;SDS011;68687;52.030;7.110;2023-04-25T04:57:29;27.58;;;8.23;;
41653;SDS011;68687;52.030;7.110;2023-04-25T04:59:57;22.60;;;7.90;;
41653;SDS011;68687;52.030;7.110;2023-04-25T05:02:23;23.40;;;7.78;;
41653;SDS011;68687;52.030;7.110;2023-04-25T05:04:48;22.73;;;7.22;;
41653;SDS011;68687;52.030;7.110;2023-04-25T05:07:13;25.33;;;7.78;;
41653;SDS011;68687;52.030;7.110;2023-04-25T05:09:42;19.75;;;7.18;;
41653;SDS011;68687;52.030;7.110;2023-04-25T05:12:07;18.73;;;7.03;;
41653;SDS011;68687;52.030;7.110;2023-04-25T05:14:32;24.67;;;7.13;;
41653;SDS011;68687;52.030;7.110;2023-04-25T05:17:01;28.77;;;7.88;;
41653;SDS011;68687;52.030;7.110;2023-04-25T05:19:26;19.98;;;6.93;;
41653;SDS011;68687;52.030;7.110;2023-04-25T05:21:51;25.35;;;7.85;;
41653;SDS011;68687;52.030;7.110;2023-04-25T05:24:17;28.95;;;8.07;;
41653;SDS011;68687;52.030;7.110;2023-04-25T05:26:45;28.50;;;7.93;;
41653;SDS011;68687;52.030;7.110;2023-04-25T05:29:11;21.65;;;7.55;;
41653;SDS011;68687;52.030;7.110;2023-04-25T05:31:36;24.50;;;8.10;;
41653;SDS011;68687;52.030;7.110;2023-04-25T05:34:04;18.05;;;6.82;;
41653;SDS011;68687;52.030;7.110;2023-04-25T05:36:29;21.10;;;7.05;;
41653;SDS011;68687;52.030;7.110;2023-04-25T05:38:57;15.70;;;6.40;;
41653;SDS011;68687;52.030;7.110;2023-04-25T05:41:22;24.23;;;7.53;;
41653;SDS011;68687;52.030;7.110;2023-04-25T05:43:48;15.65;;;6.82;;
41653;SDS011;68687;52.030;7.110;2023-04-25T05:46:14;20.45;;;8.10;;
41653;SDS011;68687;52.030;7.110;2023-04-25T05:48:41;18.05;;;7.78;;
41653;SDS011;68687;52.030;7.110;2023-04-25T05:51:07;20.33;;;7.60;;
41653;SDS011;68687;52.030;7.110;2023-04-25T05:53:32;29.05;;;8.38;;
41653;SDS011;68687;52.030;7.110;2023-04-25T05:56:01;24.15;;;7.75;;
41653;SDS011;68687;52.030;7.110;2023-04-25T05:58:29;17.70;;;6.50;;
41653;SDS011;68687;52.030;7.110;2023-04-25T06:00:55;21.67;;;7.03;;
41653;SDS011;68687;52.030;7.110;2023-04-25T06:03:20;18.13;;;6.00;;
41653;SDS011;68687;52.030;7.110;2023-04-25T06:05:45;19.20;;;7.05;;
41653;SDS011;68687;52.030;7.110;2023-04-25T06:08:11;27.58;;;7.30;;
41653;SDS011;68687;52.030;7.110;2023-04-25T06:10:36;26.25;;;7.10;;
41653;SDS011;68687;52.030;7.110;2023-04-25T06:13:02;21.42;;;7.18;;
41653;SDS011;68687;52.030;7.110;2023-04-25T06:15:30;23.45;;;7.05;;
41653;SDS011;68687;52.030;7.110;2023-04-25T06:17:58;20.02;;;7.75;;
41653;SDS011;68687;52.030;7.110;2023-04-25T06:20:30;17.08;;;7.13;;
41653;SDS011;68687;52.030;7.110;2023-04-25T06:22:58;23.83;;;7.97;;
41653;SDS011;68687;52.030;7.110;2023-04-25T06:25:23;17.05;;;5.88;;
41653;SDS011;68687;52.030;7.110;2023-04-25T06:27:48;23.35;;;6.75;;
41653;SDS011;68687;52.030;7.110;2023-04-25T06:30:17;24.85;;;6.18;;
41653;SDS011;68687;52.030;7.110;2023-04-25T06:32:47;31.92;;;6.78;;
41653;SDS011;68687;52.030;7.110;2023-04-25T06:35:12;22.05;;;6.55;;
41653;SDS011;68687;52.030;7.110;2023-04-25T06:37:41;16.92;;;5.80;;
41653;SDS011;68687;52.030;7.110;2023-04-25T06:40:06;17.55;;;6.50;;
41653;SDS011;68687;52.030;7.110;2023-04-25T06:42:35;20.08;;;6.97;;
41653;SDS011;68687;52.030;7.110;2023-04-25T06:45:00;19.58;;;5.90;;
41653;SDS011;68687;52.030;7.110;2023-04-25T06:47:26;24.70;;;6.07;;
41653;SDS011;68687;52.030;7.110;2023-04-25T06:49:51;16.00;;;5.13;;
41653;SDS011;68687;52.030;7.110;2023-04-25T06:52:22;29.85;;;7.18;;
41653;SDS011;68687;52.030;7.110;2023-04-25T06:54:48;22.55;;;6.43;;
41653;SDS011;68687;52.030;7.110;2023-04-25T06:57:16;17.48;;;6.13;;
41653;SDS011;68687;52.030;7.110;2023-04-25T06:59:42;19.63;;;7.13;;
41653;SDS011;68687;52.030;7.110;2023-04-25T07:02:10;15.98;;;5.88;;
41653;SDS011;68687;52.030;7.110;2023-04-25T07:04:35;23.05;;;6.32;;
41653;SDS011;68687;52.030;7.110;2023-04-25T07:07:01;16.45;;;5.60;;
41653;SDS011;68687;52.030;7.110;2023-04-25T07:09:31;20.92;;;5.32;;
41653;SDS011;68687;52.030;7.110;2023-04-25T07:11:58;19.63;;;6.00;;
41653;SDS011;68687;52.030;7.110;2023-04-25T07:14:27;14.85;;;6.22;;
41653;SDS011;68687;52.030;7.110;2023-04-25T07:16:53;13.10;;;4.95;;
41653;SDS011;68687;52.030;7.110;2023-04-25T07:19:23;17.00;;;5.43;;
41653;SDS011;68687;52.030;7.110;2023-04-25T07:21:51;15.77;;;5.13;;
41653;SDS011;68687;52.030;7.110;2023-04-25T07:24:16;20.83;;;5.75;;
41653;SDS011;68687;52.030;7.110;2023-04-25T07:26:42;19.15;;;6.18;;
41653;SDS011;68687;52.030;7.110;2023-04-25T07:29:10;18.63;;;6.00;;
41653;SDS011;68687;52.030;7.110;2023-04-25T07:31:35;12.55;;;5.07;;
41653;SDS011;68687;52.030;7.110;2023-04-25T07:34:01;16.95;;;4.85;;
41653;SDS011;68687;52.030;7.110;2023-04-25T07:36:26;13.05;;;5.72;;
41653;SDS011;68687;52.030;7.110;2023-04-25T07:38:55;24.05;;;5.65;;
41653;SDS011;68687;52.030;7.110;2023-04-25T07:41:20;15.10;;;5.15;;
41653;SDS011;68687;52.030;7.110;2023-04-25T07:43:52;15.90;;;4.88;;
41653;SDS011;68687;52.030;7.110;2023-04-25T07:46:23;17.38;;;5.80;;
41653;SDS011;68687;52.030;7.110;2023-04-25T07:48:48;14.80;;;4.90;;
41653;SDS011;68687;52.030;7.110;2023-04-25T07:51:14;15.23;;;5.20;;
41653;SDS011;68687;52.030;7.110;2023-04-25T07:53:51;17.25;;;6.65;;
41653;SDS011;68687;52.030;7.110;2023-04-25T07:56:17;14.70;;;5.97;;
41653;SDS011;68687;52.030;7.110;2023-04-25T07:58:42;14.18;;;6.82;;
41653;SDS011;68687;52.030;7.110;2023-04-25T08:01:07;13.45;;;6.22;;
41653;SDS011;68687;52.030;7.110;2023-04-25T08:03:32;12.52;;;5.72;;
41653;SDS011;68687;52.030;7.110;2023-04-25T08:05:58;16.95;;;6.20;;
41653;SDS011;68687;52.030;7.110;2023-04-25T08:08:29;16.98;;;6.25;;
41653;SDS011;68687;52.030;7.110;2023-04-25T08:10:57;20.27;;;6.90;;
41653;SDS011;68687;52.030;7.110;2023-04-25T08:13:34;19.58;;;5.32;;
41653;SDS011;68687;52.030;7.110;2023-04-25T08:16:00;20.35;;;5.78;;
41653;SDS011;68687;52.030;7.110;2023-04-25T08:18:31;12.25;;;5.30;;
41653;SDS011;68687;52.030;7.110;2023-04-25T08:20:56;14.32;;;5.55;;
41653;SDS011;68687;52.030;7.110;2023-04-25T08:23:22;16.30;;;5.40;;
41653;SDS011;68687;52.030;7.110;2023-04-25T08:25:47;13.80;;;5.93;;
41653;SDS011;68687;52.030;7.110;2023-04-25T08:28:13;15.02;;;6.68;;
41653;SDS011;68687;52.030;7.110;2023-04-25T08:30:43;12.10;;;6.70;;
41653;SDS011;68687;52.030;7.110;2023-04-25T08:33:08;19.08;;;5.78;;
41653;SDS011;68687;52.030;7.110;2023-04-25T08:35:33;16.70;;;5.68;;
41653;SDS011;68687;52.030;7.110;2023-04-25T08:37:59;15.05;;;5.28;;
41653;SDS011;68687;52.030;7.110;2023-04-25T08:40:27;17.63;;;5.95;;
41653;SDS011;68687;52.030;7.110;2023-04-25T08:42:56;12.52;;;6.13;;
41653;SDS011;68687;52.030;7.110;2023-04-25T08:45:22;13.52;;;5.55;;
41653;SDS011;68687;52.030;7.110;2023-04-25T08:47:48;12.55;;;7.75;;
41653;SDS011;68687;52.030;7.110;2023-04-25T08:50:16;17.05;;;6.88;;
41653;SDS011;68687;52.030;7.110;2023-04-25T08:52:50;7.75;;;5.00;;
41653;SDS011;68687;52.030;7.110;2023-04-25T08:55:18;18.70;;;5.93;;
41653;SDS011;68687;52.030;7.110;2023-04-25T08:57:47;12.15;;;5.10;;
41653;SDS011;68687;52.030;7.110;2023-04-25T09:00:12;9.27;;;5.57;;
41653;SDS011;68687;52.030;7.110;2023-04-25T09:02:39;7.55;;;5.22;;
41653;SDS011;68687;52.030;7.110;2023-04-25T09:05:05;14.93;;;5.50;;
41653;SDS011;68687;52.030;7.110;2023-04-25T09:07:31;9.63;;;6.03;;
41653;SDS011;68687;52.030;7.110;2023-04-25T09:10:00;15.15;;;4.70;;
41653;SDS011;68687;52.030;7.110;2023-04-25T09:12:31;11.60;;;5.53;;
41653;SDS011;68687;52.030;7.110;2023-04-25T09:15:04;14.32;;;5.22;;
41653;SDS011;68687;52.030;7.110;2023-04-25T09:17:34;8.88;;;4.78;;
41653;SDS011;68687;52.030;7.110;2023-04-25T09:20:06;12.98;;;4.55;;
41653;SDS011;68687;52.030;7.110;2023-04-25T09:22:39;15.20;;;5.30;;
41653;SDS011;68687;52.030;7.110;2023-04-25T09:25:11;13.48;;;5.20;;
41653;SDS011;68687;52.030;7.110;2023-04-25T09:27:48;12.70;;;4.82;;
41653;SDS011;68687;52.030;7.110;2023-04-25T09:30:17;9.73;;;4.50;;
41653;SDS011;68687;52.030;7.110;2023-04-25T09:32:49;7.65;;;4.40;;
41653;SDS011;68687;52.030;7.110;2023-04-25T09:35:24;8.75;;;4.47;;
41653;SDS011;68687;52.030;7.110;2023-04-25T09:37:51;14.90;;;5.30;;
41653;SDS011;68687;52.030;7.110;2023-04-25T09:40:17;11.25;;;4.80;;
41653;SDS011;68687;52.030;7.110;2023-04-25T09:42:43;13.02;;;4.15;;
41653;SDS011;68687;52.030;7.110;2023-04-25T09:45:08;8.90;;;4.30;;
41653;SDS011;68687;52.030;7.110;2023-04-25T09:47:38;14.68;;;4.55;;
41653;SDS011;68687;52.030;7.110;2023-04-25T09:50:04;8.55;;;4.15;;
41653;SDS011;68687;52.030;7.110;2023-04-25T09:52:43;9.20;;;3.92;;
41653;SDS011;68687;52.030;7.110;2023-04-25T09:55:08;7.75;;;4.07;;
41653;SDS011;68687;52.030;7.110;2023-04-25T09:57:33;7.00;;;4.20;;
41653;SDS011;68687;52.030;7.110;2023-04-25T10:00:00;11.63;;;4.75;;
41653;SDS011;68687;52.030;7.110;2023-04-25T10:02:26;8.45;;;4.78;;
41653;SDS011;68687;52.030;7.110;2023-04-25T10:04:55;6.22;;;4.65;;
41653;SDS011;68687;52.030;7.110;2023-04-25T10:07:29;8.48;;;4.50;;
41653;SDS011;68687;52.030;7.110;2023-04-25T10:09:59;11.55;;;7.93;;
41653;SDS011;68687;52.030;7.110;2023-04-25T10:12:28;9.73;;;4.13;;
41653;SDS011;68687;52.030;7.110;2023-04-25T10:14:54;11.93;;;4.50;;
41653;SDS011;68687;52.030;7.110;2023-04-25T10:17:19;9.55;;;5.10;;
41653;SDS011;68687;52.030;7.110;2023-04-25T10:19:46;11.23;;;5.40;;
41653;SDS011;68687;52.030;7.110;2023-04-25T10:22:14;15.20;;;5.63;;
41653;SDS011;68687;52.030;7.110;2023-04-25T10:24:46;12.75;;;4.63;;
41653;SDS011;68687;52.030;7.110;2023-04-25T10:27:12;10.52;;;4.85;;
41653;SDS011;68687;52.030;7.110;2023-04-25T10:29:41;11.82;;;6.43;;
41653;SDS011;68687;52.030;7.110;2023-04-25T10:32:11;7.38;;;4.85;;
41653;SDS011;68687;52.030;7.110;2023-04-25T10:34:43;9.10;;;4.45;;
41653;SDS011;68687;52.030;7.110;2023-04-25T10:37:11;11.70;;;4.63;;
41653;SDS011;68687;52.030;7.110;2023-04-25T10:39:38;10.50;;;4.40;;
41653;SDS011;68687;52.030;7.110;2023-04-25T10:42:05;9.77;;;4.75;;
41653;SDS011;68687;52.030;7.110;2023-04-25T10:44:32;15.23;;;4.70;;
41653;SDS011;68687;52.030;7.110;2023-04-25T10:46:59;12.90;;;4.72;;
41653;SDS011;68687;52.030;7.110;2023-04-25T10:49:30;10.55;;;5.40;;
41653;SDS011;68687;52.030;7.110;2023-04-25T11:00:04;6.60;;;4.20;;
41653;SDS011;68687;52.030;7.110;2023-04-25T11:02:36;7.75;;;3.75;;
41653;SDS011;68687;52.030;7.110;2023-04-25T11:05:03;9.50;;;3.85;;
41653;SDS011;68687;52.030;7.110;2023-04-25T11:10:27;15.60;;;4.38;;
41653;SDS011;68687;52.030;7.110;2023-04-25T11:12:54;7.47;;;4.50;;
41653;SDS011;68687;52.030;7.110;2023-04-25T11:15:22;6.68;;;3.53;;
41653;SDS011;68687;52.030;7.110;2023-04-25T11:17:51;8.63;;;3.58;;
41653;SDS011;68687;52.030;7.110;2023-04-25T11:20:17;7.05;;;3.08;;
41653;SDS011;68687;52.030;7.110;2023-04-25T11:22:44;7.55;;;3.47;;
41653;SDS011;68687;52.030;7.110;2023-04-25T11:25:10;8.57;;;3.88;;
41653;SDS011;68687;52.030;7.110;2023-04-25T11:27:37;6.03;;;3.80;;
41653;SDS011;68687;52.030;7.110;2023-04-25T11:30:14;8.82;;;4.53;;
41653;SDS011;68687;52.030;7.110;2023-04-25T11:32:43;5.53;;;3.80;;
41653;SDS011;68687;52.030;7.110;2023-04-25T11:35:09;10.27;;;3.95;;
41653;SDS011;68687;52.030;7.110;2023-04-25T11:37:41;11.63;;;5.72;;
41653;SDS011;68687;52.030;7.110;2023-04-25T11:40:07;10.98;;;4.60;;
41653;SDS011;68687;52.030;7.110;2023-04-25T11:42:38;9.65;;;4.13;;
41653;SDS011;68687;52.030;7.110;2023-04-25T11:45:07;8.77;;;3.83;;
41653;SDS011;68687;52.030;7.110;2023-04-25T11:47:36;8.15;;;4.13;;
41653;SDS011;68687;52.030;7.110;2023-04-25T11:50:02;7.50;;;4.65;;
41653;SDS011;68687;52.030;7.110;2023-04-25T11:52:41;9.85;;;4.57;;
41653;SDS011;68687;52.030;7.110;2023-04-25T11:55:08;12.43;;;5.05;;
41653;SDS011;68687;52.030;7.110;2023-04-25T11:57:38;6.32;;;3.75;;
41653;SDS011;68687;52.030;7.110;2023-04-25T12:00:14;13.15;;;4.45;;
41653;SDS011;68687;52.030;7.110;2023-04-25T12:02:41;6.75;;;3.92;;
41653;SDS011;68687;52.030;7.110;2023-04-25T12:05:08;12.48;;;4.30;;
41653;SDS011;68687;52.030;7.110;2023-04-25T12:07:35;5.45;;;4.35;;
41653;SDS011;68687;52.030;7.110;2023-04-25T12:10:04;11.50;;;4.97;;
41653;SDS011;68687;52.030;7.110;2023-04-25T12:12:37;9.70;;;3.92;;
41653;SDS011;68687;52.030;7.110;2023-04-25T12:15:15;6.75;;;4.00;;
41653;SDS011;68687;52.030;7.110;2023-04-25T12:17:56;8.15;;;4.50;;
41653;SDS011;68687;52.030;7.110;2023-04-25T12:20:23;4.65;;;4.13;;
41653;SDS011;68687;52.030;7.110;2023-04-25T12:22:53;6.93;;;4.40;;
41653;SDS011;68687;52.030;7.110;2023-04-25T12:31:10;6.50;;;3.75;;
41653;SDS011;68687;52.030;7.110;2023-04-25T12:33:42;6.85;;;3.83;;
41653;SDS011;68687;52.030;7.110;2023-04-25T12:36:08;7.75;;;4.32;;
41653;SDS011;68687;52.030;7.110;2023-04-25T12:38:36;6.50;;;4.32;;
41653;SDS011;68687;52.030;7.110;2023-04-25T12:41:03;5.55;;;4.88;;
41653;SDS011;68687;52.030;7.110;2023-04-25T12:43:28;6.78;;;4.25;;
41653;SDS011;68687;52.030;7.110;2023-04-25T12:45:55;6.65;;;4.10;;
41653;SDS011;68687;52.030;7.110;2023-04-25T12:48:21;5.78;;;3.72;;
41653;SDS011;68687;52.030;7.110;2023-04-25T12:50:47;5.07;;;4.20;;
41653;SDS011;68687;52.030;7.110;2023-04-25T12:53:17;11.77;;;4.10;;
41653;SDS011;68687;52.030;7.110;2023-04-25T12:55:46;7.28;;;4.35;;
41653;SDS011;68687;52.030;7.110;2023-04-25T12:58:18;10.07;;;3.75;;
41653;SDS011;68687;52.030;7.110;2023-04-25T13:00:44;8.38;;;3.92;;
41653;SDS011;68687;52.030;7.110;2023-04-25T13:03:10;8.35;;;3.85;;
41653;SDS011;68687;52.030;7.110;2023-04-25T13:05:37;13.48;;;4.00;;
41653;SDS011;68687;52.030;7.110;2023-04-25T13:08:03;6.95;;;3.83;;
41653;SDS011;68687;52.030;7.110;2023-04-25T13:10:32;8.75;;;4.07;;
41653;SDS011;68687;52.030;7.110;2023-04-25T13:12:58;11.70;;;3.88;;
41653;SDS011;68687;52.030;7.110;2023-04-25T13:15:27;8.95;;;3.70;;
41653;SDS011;68687;52.030;7.110;2023-04-25T13:17:52;7.03;;;3.70;;
41653;SDS011;68687;52.030;7.110;2023-04-25T13:20:20;8.32;;;3.72;;
41653;SDS011;68687;52.030;7.110;2023-04-25T13:22:47;8.40;;;3.60;;
41653;SDS011;68687;52.030;7.110;2023-04-25T13:25:12;5.95;;;3.30;;
41653;SDS011;68687;52.030;7.110;2023-04-25T13:27:44;7.75;;;3.15;;
41653;SDS011;68687;52.030;7.110;2023-04-25T13:30:12;6.95;;;3.20;;
41653;SDS011;68687;52.030;7.110;2023-04-25T13:32:41;8.38;;;3.10;;
41653;SDS011;68687;52.030;7.110;2023-04-25T13:35:07;6.53;;;3.10;;
41653;SDS011;68687;52.030;7.110;2023-04-25T13:37:34;8.30;;;3.55;;
41653;SDS011;68687;52.030;7.110;2023-04-25T13:40:00;6.18;;;3.97;;
41653;SDS011;68687;52.030;7.110;2023-04-25T13:42:27;5.03;;;3.90;;
41653;SDS011;68687;52.030;7.110;2023-04-25T13:44:53;7.63;;;3.40;;
41653;SDS011;68687;52.030;7.110;2023-04-25T13:47:18;5.32;;;3.30;;
41653;SDS011;68687;52.030;7.110;2023-04-25T13:49:46;8.45;;;3.45;;
41653;SDS011;68687;52.030;7.110;2023-04-25T13:52:12;6.70;;;3.90;;
41653;SDS011;68687;52.030;7.110;2023-04-25T13:54:37;6.57;;;4.30;;
41653;SDS011;68687;52.030;7.110;2023-04-25T13:57:02;11.88;;;3.90;;
41653;SDS011;68687;52.030;7.110;2023-04-25T13:59:27;4.75;;;3.60;;
41653;SDS011;68687;52.030;7.110;2023-04-25T14:01:53;5.82;;;3.10;;
41653;SDS011;68687;52.030;7.110;2023-04-25T14:04:18;8.57;;;3.60;;
41653;SDS011;68687;52.030;7.110;2023-04-25T14:06:43;4.90;;;3.33;;
41653;SDS011;68687;52.030;7.110;2023-04-25T14:09:09;9.63;;;3.85;;
41653;SDS011;68687;52.030;7.110;2023-04-25T14:11:44;10.43;;;3.60;;
41653;SDS011;68687;52.030;7.110;2023-04-25T14:14:09;8.63;;;3.73;;
41653;SDS011;68687;52.030;7.110;2023-04-25T14:16:35;7.15;;;4.00;;
41653;SDS011;68687;52.030;7.110;2023-04-25T14:19:13;6.20;;;3.67;;
41653;SDS011;68687;52.030;7.110;2023-04-25T14:21:38;6.22;;;3.90;;
41653;SDS011;68687;52.030;7.110;2023-04-25T14:24:06;7.45;;;3.88;;
41653;SDS011;68687;52.030;7.110;2023-04-25T14:26:33;3.75;;;3.40;;
41653;SDS011;68687;52.030;7.110;2023-04-25T14:29:03;5.45;;;3.13;;
41653;SDS011;68687;52.030;7.110;2023-04-25T14:31:30;7.43;;;3.60;;
41653;SDS011;68687;52.030;7.110;2023-04-25T14:33:55;3.40;;;3.00;;
41653;SDS011;68687;52.030;7.110;2023-04-25T14:36:21;7.00;;;3.20;;
41653;SDS011;68687;52.030;7.110;2023-04-25T14:38:46;4.28;;;3.40;;
41653;SDS011;68687;52.030;7.110;2023-04-25T14:41:18;5.13;;;3.30;;
41653;SDS011;68687;52.030;7.110;2023-04-25T14:43:43;9.02;;;3.60;;
41653;SDS011;68687;52.030;7.110;2023-04-25T14:46:15;6.80;;;4.32;;
41653;SDS011;68687;52.030;7.110;2023-04-25T14:48:41;6.43;;;4.00;;
41653;SDS011;68687;52.030;7.110;2023-04-25T14:51:07;8.52;;;3.92;;
41653;SDS011;68687;52.030;7.110;2023-04-25T14:53:32;9.40;;;3.22;;
41653;SDS011;68687;52.030;7.110;2023-04-25T14:55:57;5.38;;;3.92;;